sensor_id;sensor_type;location;lat;lon;timestamp;temperature;humidity
37274;DHT22;23161;51.250;5.554;2022-10-13T00:00:27;12.10;99.90
37274;DHT22;23161;51.250;5.554;2022-10-13T00:05:20;12.20;99.90
37274;DHT22;23161;51.250;5.554;2022-10-13T00:07:45;12.20;99.90
37274;DHT22;23161;51.250;5.554;2022-10-13T00:10:11;12.20;99.90
37274;DHT22;23161;51.250;5.554;2022-10-13T00:12:37;12.20;99.90
37274;DHT22;23161;51.250;5.554;2022-10-13T00:15:07;12.20;99.90
37274;DHT22;23161;51.250;5.554;2022-10-13T00:17:34;12.20;99.90
37274;DHT22;23161;51.250;5.554;2022-10-13T00:20:04;12.20;99.90
37274;DHT22;23161;51.250;5.554;2022-10-13T00:22:31;12.20;99.90
37274;DHT22;23161;51.250;5.554;2022-10-13T00:24:57;12.20;99.90
37274;DHT22;23161;51.250;5.554;2022-10-13T00:27:23;12.20;99.90
37274;DHT22;23161;51.250;5.554;2022-10-13T00:29:49;12.20;99.90
37274;DHT22;23161;51.250;5.554;2022-10-13T00:32:15;12.20;99.90
37274;DHT22;23161;51.250;5.554;2022-10-13T00:34:40;12.20;99.90
37274;DHT22;23161;51.250;5.554;2022-10-13T00:37:07;12.20;99.90
37274;DHT22;23161;51.250;5.554;2022-10-13T00:39:33;12.20;99.90
37274;DHT22;23161;51.250;5.554;2022-10-13T00:41:59;12.20;99.90
37274;DHT22;23161;51.250;5.554;2022-10-13T00:47:30;12.20;99.90
37274;DHT22;23161;51.250;5.554;2022-10-13T00:49:58;12.20;99.90
37274;DHT22;23161;51.250;5.554;2022-10-13T00:52:25;12.20;99.90
37274;DHT22;23161;51.250;5.554;2022-10-13T00:54:52;12.20;99.90
37274;DHT22;23161;51.250;5.554;2022-10-13T00:57:19;12.10;99.90
37274;DHT22;23161;51.250;5.554;2022-10-13T00:59:46;12.20;99.90
37274;DHT22;23161;51.250;5.554;2022-10-13T01:02:12;12.20;99.90
37274;DHT22;23161;51.250;5.554;2022-10-13T01:04:44;12.20;99.90
37274;DHT22;23161;51.250;5.554;2022-10-13T01:07:13;12.20;99.90
37274;DHT22;23161;51.250;5.554;2022-10-13T01:09:39;12.20;99.90
37274;DHT22;23161;51.250;5.554;2022-10-13T01:12:28;12.20;99.90
37274;DHT22;23161;51.250;5.554;2022-10-13T01:15:12;12.20;99.90
37274;DHT22;23161;51.250;5.554;2022-10-13T01:21:07;12.20;99.90
37274;DHT22;23161;51.250;5.554;2022-10-13T01:29:57;12.20;99.90
37274;DHT22;23161;51.250;5.554;2022-10-13T01:32:58;12.20;99.90
37274;DHT22;23161;51.250;5.554;2022-10-13T01:35:37;12.20;99.90
37274;DHT22;23161;51.250;5.554;2022-10-13T01:38:14;12.20;99.90
37274;DHT22;23161;51.250;5.554;2022-10-13T01:43:44;12.20;99.90
37274;DHT22;23161;51.250;5.554;2022-10-13T01:46:16;12.20;99.90
37274;DHT22;23161;51.250;5.554;2022-10-13T01:48:44;12.20;99.90
37274;DHT22;23161;51.250;5.554;2022-10-13T01:51:15;12.20;99.90
37274;DHT22;23161;51.250;5.554;2022-10-13T01:53:44;12.20;99.90
37274;DHT22;23161;51.250;5.554;2022-10-13T01:56:11;12.20;99.90
37274;DHT22;23161;51.250;5.554;2022-10-13T01:58:40;12.20;99.90
37274;DHT22;23161;51.250;5.554;2022-10-13T02:01:20;12.20;99.90
37274;DHT22;23161;51.250;5.554;2022-10-13T02:04:06;12.30;99.90
37274;DHT22;23161;51.250;5.554;2022-10-13T02:06:46;12.20;99.90
37274;DHT22;23161;51.250;5.554;2022-10-13T02:09:25;12.20;99.90
37274;DHT22;23161;51.250;5.554;2022-10-13T02:12:06;12.20;99.90
37274;DHT22;23161;51.250;5.554;2022-10-13T02:14:36;12.20;99.90
37274;DHT22;23161;51.250;5.554;2022-10-13T02:17:04;12.20;99.90
37274;DHT22;23161;51.250;5.554;2022-10-13T02:19:36;12.30;99.90
37274;DHT22;23161;51.250;5.554;2022-10-13T02:22:03;12.20;99.90
37274;DHT22;23161;51.250;5.554;2022-10-13T02:24:30;12.20;99.90
37274;DHT22;23161;51.250;5.554;2022-10-13T02:26:55;12.20;99.90
37274;DHT22;23161;51.250;5.554;2022-10-13T02:29:22;12.20;99.90
37274;DHT22;23161;51.250;5.554;2022-10-13T02:31:48;12.20;99.90
37274;DHT22;23161;51.250;5.554;2022-10-13T02:34:14;12.20;99.90
37274;DHT22;23161;51.250;5.554;2022-10-13T02:36:40;12.20;99.90
37274;DHT22;23161;51.250;5.554;2022-10-13T02:39:07;12.20;99.90
37274;DHT22;23161;51.250;5.554;2022-10-13T02:41:33;12.20;99.90
37274;DHT22;23161;51.250;5.554;2022-10-13T02:43:59;12.20;99.90
37274;DHT22;23161;51.250;5.554;2022-10-13T02:46:33;12.20;99.90
37274;DHT22;23161;51.250;5.554;2022-10-13T02:48:59;12.20;99.90
37274;DHT22;23161;51.250;5.554;2022-10-13T02:51:27;12.20;99.90
37274;DHT22;23161;51.250;5.554;2022-10-13T02:53:53;12.20;99.90
37274;DHT22;23161;51.250;5.554;2022-10-13T02:56:18;12.20;99.90
37274;DHT22;23161;51.250;5.554;2022-10-13T02:58:45;12.20;99.90
37274;DHT22;23161;51.250;5.554;2022-10-13T03:01:12;12.20;99.90
37274;DHT22;23161;51.250;5.554;2022-10-13T03:03:39;12.20;99.90
37274;DHT22;23161;51.250;5.554;2022-10-13T03:06:05;12.20;99.90
37274;DHT22;23161;51.250;5.554;2022-10-13T03:08:33;12.20;99.90
37274;DHT22;23161;51.250;5.554;2022-10-13T03:11:00;12.20;99.90
37274;DHT22;23161;51.250;5.554;2022-10-13T03:13:26;12.20;99.90
37274;DHT22;23161;51.250;5.554;2022-10-13T03:15:52;12.20;99.90
37274;DHT22;23161;51.250;5.554;2022-10-13T03:18:18;12.20;99.90
37274;DHT22;23161;51.250;5.554;2022-10-13T03:20:43;12.20;99.90
37274;DHT22;23161;51.250;5.554;2022-10-13T03:23:09;12.20;99.90
37274;DHT22;23161;51.250;5.554;2022-10-13T03:25:36;12.20;99.90
37274;DHT22;23161;51.250;5.554;2022-10-13T03:28:02;12.20;99.90
37274;DHT22;23161;51.250;5.554;2022-10-13T03:30:27;12.20;99.90
37274;DHT22;23161;51.250;5.554;2022-10-13T03:32:54;12.20;99.90
37274;DHT22;23161;51.250;5.554;2022-10-13T03:35:19;12.20;99.90
37274;DHT22;23161;51.250;5.554;2022-10-13T03:37:46;12.20;99.90
37274;DHT22;23161;51.250;5.554;2022-10-13T03:40:11;12.20;99.90
37274;DHT22;23161;51.250;5.554;2022-10-13T03:42:38;12.20;99.90
37274;DHT22;23161;51.250;5.554;2022-10-13T03:45:04;12.20;99.90
37274;DHT22;23161;51.250;5.554;2022-10-13T03:47:35;12.20;99.90
37274;DHT22;23161;51.250;5.554;2022-10-13T03:50:02;12.20;99.90
37274;DHT22;23161;51.250;5.554;2022-10-13T03:52:28;12.20;99.90
37274;DHT22;23161;51.250;5.554;2022-10-13T03:54:54;12.20;99.90
37274;DHT22;23161;51.250;5.554;2022-10-13T03:57:20;12.20;99.90
37274;DHT22;23161;51.250;5.554;2022-10-13T03:59:46;12.20;99.90
37274;DHT22;23161;51.250;5.554;2022-10-13T04:02:11;12.20;99.90
37274;DHT22;23161;51.250;5.554;2022-10-13T04:04:38;12.20;99.90
37274;DHT22;23161;51.250;5.554;2022-10-13T04:07:05;12.20;99.90
37274;DHT22;23161;51.250;5.554;2022-10-13T04:09:31;12.20;99.90
37274;DHT22;23161;51.250;5.554;2022-10-13T04:11:58;12.20;99.90
37274;DHT22;23161;51.250;5.554;2022-10-13T04:14:24;12.20;99.90
37274;DHT22;23161;51.250;5.554;2022-10-13T04:16:50;12.20;99.90
37274;DHT22;23161;51.250;5.554;2022-10-13T04:19:15;12.20;99.90
37274;DHT22;23161;51.250;5.554;2022-10-13T04:21:42;12.20;99.90
37274;DHT22;23161;51.250;5.554;2022-10-13T04:24:11;12.20;99.90
37274;DHT22;23161;51.250;5.554;2022-10-13T04:26:38;12.20;99.90
37274;DHT22;23161;51.250;5.554;2022-10-13T04:29:07;12.20;99.90
37274;DHT22;23161;51.250;5.554;2022-10-13T04:31:34;12.20;99.90
37274;DHT22;23161;51.250;5.554;2022-10-13T04:34:00;12.20;99.90
37274;DHT22;23161;51.250;5.554;2022-10-13T04:36:26;12.20;99.90
37274;DHT22;23161;51.250;5.554;2022-10-13T04:38:53;12.20;99.90
37274;DHT22;23161;51.250;5.554;2022-10-13T04:41:19;12.10;99.90
37274;DHT22;23161;51.250;5.554;2022-10-13T04:43:52;12.20;99.90
37274;DHT22;23161;51.250;5.554;2022-10-13T04:46:24;12.20;99.90
37274;DHT22;23161;51.250;5.554;2022-10-13T04:48:51;12.20;99.90
37274;DHT22;23161;51.250;5.554;2022-10-13T04:51:22;12.20;99.90
37274;DHT22;23161;51.250;5.554;2022-10-13T04:53:53;12.10;99.90
37274;DHT22;23161;51.250;5.554;2022-10-13T04:56:19;12.20;99.90
37274;DHT22;23161;51.250;5.554;2022-10-13T04:58:45;12.10;99.90
37274;DHT22;23161;51.250;5.554;2022-10-13T05:01:17;12.20;99.90
37274;DHT22;23161;51.250;5.554;2022-10-13T05:03:54;12.10;99.90
37274;DHT22;23161;51.250;5.554;2022-10-13T05:06:23;12.10;99.90
37274;DHT22;23161;51.250;5.554;2022-10-13T05:08:55;12.20;99.90
37274;DHT22;23161;51.250;5.554;2022-10-13T05:11:25;12.20;99.90
37274;DHT22;23161;51.250;5.554;2022-10-13T05:13:51;12.20;99.90
37274;DHT22;23161;51.250;5.554;2022-10-13T05:16:18;12.10;99.90
37274;DHT22;23161;51.250;5.554;2022-10-13T05:18:46;12.10;99.90
37274;DHT22;23161;51.250;5.554;2022-10-13T05:21:17;12.10;99.90
37274;DHT22;23161;51.250;5.554;2022-10-13T05:23:47;12.10;99.90
37274;DHT22;23161;51.250;5.554;2022-10-13T05:26:15;12.00;99.90
37274;DHT22;23161;51.250;5.554;2022-10-13T05:28:41;12.20;99.90
37274;DHT22;23161;51.250;5.554;2022-10-13T05:31:16;12.10;99.90
37274;DHT22;23161;51.250;5.554;2022-10-13T05:33:43;12.20;99.90
37274;DHT22;23161;51.250;5.554;2022-10-13T05:36:14;12.20;99.90
37274;DHT22;23161;51.250;5.554;2022-10-13T05:38:42;12.20;99.90
37274;DHT22;23161;51.250;5.554;2022-10-13T05:41:11;12.20;99.90
37274;DHT22;23161;51.250;5.554;2022-10-13T05:43:38;12.10;99.90
37274;DHT22;23161;51.250;5.554;2022-10-13T05:46:05;12.10;99.90
37274;DHT22;23161;51.250;5.554;2022-10-13T05:48:35;12.20;99.90
37274;DHT22;23161;51.250;5.554;2022-10-13T05:51:05;12.40;99.90
37274;DHT22;23161;51.250;5.554;2022-10-13T05:53:36;12.10;99.90
37274;DHT22;23161;51.250;5.554;2022-10-13T05:56:11;12.20;99.90
37274;DHT22;23161;51.250;5.554;2022-10-13T05:58:43;12.10;99.90
37274;DHT22;23161;51.250;5.554;2022-10-13T06:01:10;12.10;99.90
37274;DHT22;23161;51.250;5.554;2022-10-13T06:03:37;12.10;99.90
37274;DHT22;23161;51.250;5.554;2022-10-13T06:06:05;12.20;99.90
37274;DHT22;23161;51.250;5.554;2022-10-13T06:08:31;12.10;99.90
37274;DHT22;23161;51.250;5.554;2022-10-13T06:13:26;12.20;99.90
37274;DHT22;23161;51.250;5.554;2022-10-13T06:15:51;12.10;99.90
37274;DHT22;23161;51.250;5.554;2022-10-13T06:18:18;12.20;99.90
37274;DHT22;23161;51.250;5.554;2022-10-13T06:20:43;12.20;99.90
37274;DHT22;23161;51.250;5.554;2022-10-13T06:23:14;12.10;99.90
37274;DHT22;23161;51.250;5.554;2022-10-13T06:25:50;12.10;99.90
37274;DHT22;23161;51.250;5.554;2022-10-13T06:28:16;12.20;99.90
37274;DHT22;23161;51.250;5.554;2022-10-13T06:30:47;12.20;99.90
37274;DHT22;23161;51.250;5.554;2022-10-13T06:33:20;12.10;99.90
37274;DHT22;23161;51.250;5.554;2022-10-13T06:35:45;12.20;99.90
37274;DHT22;23161;51.250;5.554;2022-10-13T06:38:12;12.20;99.90
37274;DHT22;23161;51.250;5.554;2022-10-13T06:40:40;12.10;99.90
37274;DHT22;23161;51.250;5.554;2022-10-13T06:43:06;12.20;99.90
37274;DHT22;23161;51.250;5.554;2022-10-13T06:45:40;12.10;99.90
37274;DHT22;23161;51.250;5.554;2022-10-13T06:48:05;12.20;99.90
37274;DHT22;23161;51.250;5.554;2022-10-13T06:50:31;12.20;99.90
37274;DHT22;23161;51.250;5.554;2022-10-13T06:52:58;12.20;99.90
37274;DHT22;23161;51.250;5.554;2022-10-13T06:55:23;12.20;99.90
37274;DHT22;23161;51.250;5.554;2022-10-13T06:57:50;12.20;99.90
37274;DHT22;23161;51.250;5.554;2022-10-13T07:00:16;12.20;99.90
37274;DHT22;23161;51.250;5.554;2022-10-13T07:05:08;12.20;99.90
37274;DHT22;23161;51.250;5.554;2022-10-13T07:07:34;12.10;99.90
37274;DHT22;23161;51.250;5.554;2022-10-13T07:10:00;12.20;99.90
37274;DHT22;23161;51.250;5.554;2022-10-13T07:12:26;12.20;99.90
37274;DHT22;23161;51.250;5.554;2022-10-13T07:14:51;12.20;99.90
37274;DHT22;23161;51.250;5.554;2022-10-13T07:17:17;12.20;99.90
37274;DHT22;23161;51.250;5.554;2022-10-13T07:24:38;12.20;99.90
37274;DHT22;23161;51.250;5.554;2022-10-13T07:27:04;12.20;99.90
37274;DHT22;23161;51.250;5.554;2022-10-13T07:29:30;12.20;99.90
37274;DHT22;23161;51.250;5.554;2022-10-13T07:31:56;12.30;99.90
37274;DHT22;23161;51.250;5.554;2022-10-13T07:34:22;12.30;99.90
37274;DHT22;23161;51.250;5.554;2022-10-13T07:36:48;12.30;99.90
37274;DHT22;23161;51.250;5.554;2022-10-13T07:39:14;12.30;99.90
37274;DHT22;23161;51.250;5.554;2022-10-13T07:44:06;12.30;99.90
37274;DHT22;23161;51.250;5.554;2022-10-13T07:46:31;12.30;99.90
37274;DHT22;23161;51.250;5.554;2022-10-13T07:48:57;12.40;99.90
37274;DHT22;23161;51.250;5.554;2022-10-13T07:51:23;12.40;99.90
37274;DHT22;23161;51.250;5.554;2022-10-13T07:53:49;12.50;99.90
37274;DHT22;23161;51.250;5.554;2022-10-13T07:56:15;12.50;99.90
37274;DHT22;23161;51.250;5.554;2022-10-13T07:58:43;12.50;99.90
37274;DHT22;23161;51.250;5.554;2022-10-13T08:01:10;12.50;99.90
37274;DHT22;23161;51.250;5.554;2022-10-13T08:03:39;12.50;99.90
37274;DHT22;23161;51.250;5.554;2022-10-13T08:06:06;12.50;99.90
37274;DHT22;23161;51.250;5.554;2022-10-13T08:08:36;12.50;99.90
37274;DHT22;23161;51.250;5.554;2022-10-13T08:11:04;12.50;99.90
37274;DHT22;23161;51.250;5.554;2022-10-13T08:13:30;12.50;99.90
37274;DHT22;23161;51.250;5.554;2022-10-13T08:15:59;12.50;99.90
37274;DHT22;23161;51.250;5.554;2022-10-13T08:18:27;12.50;99.90
37274;DHT22;23161;51.250;5.554;2022-10-13T08:20:53;12.50;99.90
37274;DHT22;23161;51.250;5.554;2022-10-13T08:25:49;12.60;99.90
37274;DHT22;23161;51.250;5.554;2022-10-13T08:28:18;12.60;99.90
37274;DHT22;23161;51.250;5.554;2022-10-13T08:35:36;12.60;99.90
37274;DHT22;23161;51.250;5.554;2022-10-13T08:40:29;12.70;99.90
37274;DHT22;23161;51.250;5.554;2022-10-13T08:45:25;12.70;99.90
37274;DHT22;23161;51.250;5.554;2022-10-13T08:50:24;12.70;99.90
37274;DHT22;23161;51.250;5.554;2022-10-13T08:53:00;12.70;99.90
37274;DHT22;23161;51.250;5.554;2022-10-13T08:58:13;12.80;99.90
37274;DHT22;23161;51.250;5.554;2022-10-13T09:00:42;12.80;99.90
37274;DHT22;23161;51.250;5.554;2022-10-13T09:03:37;13.00;99.90
37274;DHT22;23161;51.250;5.554;2022-10-13T09:06:20;12.70;99.90
37274;DHT22;23161;51.250;5.554;2022-10-13T09:08:54;12.80;99.90
37274;DHT22;23161;51.250;5.554;2022-10-13T09:11:22;12.80;99.90
37274;DHT22;23161;51.250;5.554;2022-10-13T09:13:48;12.80;99.90
37274;DHT22;23161;51.250;5.554;2022-10-13T09:16:24;12.80;99.90
37274;DHT22;23161;51.250;5.554;2022-10-13T09:21:23;12.80;99.90
37274;DHT22;23161;51.250;5.554;2022-10-13T09:23:51;12.80;99.90
37274;DHT22;23161;51.250;5.554;2022-10-13T09:26:21;12.80;99.90
37274;DHT22;23161;51.250;5.554;2022-10-13T09:28:48;12.90;99.90
37274;DHT22;23161;51.250;5.554;2022-10-13T09:31:26;12.80;99.90
37274;DHT22;23161;51.250;5.554;2022-10-13T09:33:58;12.90;99.90
37274;DHT22;23161;51.250;5.554;2022-10-13T09:39:11;12.90;99.90
37274;DHT22;23161;51.250;5.554;2022-10-13T09:41:39;12.90;99.90
37274;DHT22;23161;51.250;5.554;2022-10-13T09:44:26;12.90;99.90
37274;DHT22;23161;51.250;5.554;2022-10-13T09:46:56;12.90;99.90
37274;DHT22;23161;51.250;5.554;2022-10-13T09:51:59;12.90;99.90
37274;DHT22;23161;51.250;5.554;2022-10-13T09:54:42;12.90;99.90
37274;DHT22;23161;51.250;5.554;2022-10-13T10:02:54;13.00;99.90
37274;DHT22;23161;51.250;5.554;2022-10-13T10:05:27;13.00;99.90
37274;DHT22;23161;51.250;5.554;2022-10-13T10:08:01;13.00;99.90
37274;DHT22;23161;51.250;5.554;2022-10-13T10:10:35;13.00;99.90
37274;DHT22;23161;51.250;5.554;2022-10-13T10:13:10;13.00;99.90
37274;DHT22;23161;51.250;5.554;2022-10-13T10:23:42;13.00;99.90
37274;DHT22;23161;51.250;5.554;2022-10-13T10:31:54;13.00;99.90
37274;DHT22;23161;51.250;5.554;2022-10-13T10:34:26;13.00;99.90
37274;DHT22;23161;51.250;5.554;2022-10-13T10:39:40;13.00;99.90
37274;DHT22;23161;51.250;5.554;2022-10-13T10:42:14;13.00;99.90
37274;DHT22;23161;51.250;5.554;2022-10-13T10:44:45;13.00;99.90
37274;DHT22;23161;51.250;5.554;2022-10-13T10:48:02;13.00;99.90
37274;DHT22;23161;51.250;5.554;2022-10-13T10:50:14;13.00;99.90
37274;DHT22;23161;51.250;5.554;2022-10-13T10:55:14;13.00;99.90
37274;DHT22;23161;51.250;5.554;2022-10-13T11:00:18;13.00;99.90
37274;DHT22;23161;51.250;5.554;2022-10-13T11:03:25;13.00;99.90
37274;DHT22;23161;51.250;5.554;2022-10-13T11:06:21;13.00;99.90
37274;DHT22;23161;51.250;5.554;2022-10-13T11:08:48;13.00;99.90
37274;DHT22;23161;51.250;5.554;2022-10-13T11:35:13;13.10;99.90
37274;DHT22;23161;51.250;5.554;2022-10-13T11:52:08;13.10;99.90
37274;DHT22;23161;51.250;5.554;2022-10-13T11:55:10;13.10;99.90
37274;DHT22;23161;51.250;5.554;2022-10-13T11:57:36;13.10;99.90
37274;DHT22;23161;51.250;5.554;2022-10-13T12:00:03;13.10;99.90
37274;DHT22;23161;51.250;5.554;2022-10-13T12:02:47;13.10;99.90
37274;DHT22;23161;51.250;5.554;2022-10-13T12:05:27;13.10;99.90
37274;DHT22;23161;51.250;5.554;2022-10-13T12:08:01;13.10;99.90
37274;DHT22;23161;51.250;5.554;2022-10-13T12:10:31;13.10;99.90
37274;DHT22;23161;51.250;5.554;2022-10-13T12:12:59;13.10;99.90
37274;DHT22;23161;51.250;5.554;2022-10-13T12:15:42;13.10;99.90
37274;DHT22;23161;51.250;5.554;2022-10-13T12:18:41;13.10;99.90
37274;DHT22;23161;51.250;5.554;2022-10-13T12:23:36;13.10;99.90
37274;DHT22;23161;51.250;5.554;2022-10-13T12:26:03;13.20;99.90
37274;DHT22;23161;51.250;5.554;2022-10-13T12:28:56;13.20;99.90
37274;DHT22;23161;51.250;5.554;2022-10-13T12:31:27;13.20;99.90
37274;DHT22;23161;51.250;5.554;2022-10-13T12:33:59;13.20;99.90
37274;DHT22;23161;51.250;5.554;2022-10-13T12:36:30;13.20;99.90
37274;DHT22;23161;51.250;5.554;2022-10-13T12:39:06;13.20;99.90
37274;DHT22;23161;51.250;5.554;2022-10-13T12:41:38;13.20;99.90
37274;DHT22;23161;51.250;5.554;2022-10-13T12:44:05;13.20;99.90
37274;DHT22;23161;51.250;5.554;2022-10-13T12:46:45;13.30;99.90
37274;DHT22;23161;51.250;5.554;2022-10-13T12:54:37;13.30;99.90
37274;DHT22;23161;51.250;5.554;2022-10-13T12:57:15;13.30;99.90
37274;DHT22;23161;51.250;5.554;2022-10-13T12:59:42;13.30;99.90
37274;DHT22;23161;51.250;5.554;2022-10-13T13:02:25;13.40;99.90
37274;DHT22;23161;51.250;5.554;2022-10-13T13:04:52;13.30;99.90
37274;DHT22;23161;51.250;5.554;2022-10-13T13:10:00;13.40;99.90
37274;DHT22;23161;51.250;5.554;2022-10-13T13:12:27;13.40;99.90
37274;DHT22;23161;51.250;5.554;2022-10-13T13:14:54;13.40;99.90
37274;DHT22;23161;51.250;5.554;2022-10-13T13:17:30;13.40;99.90
37274;DHT22;23161;51.250;5.554;2022-10-13T13:19:57;13.40;99.90
37274;DHT22;23161;51.250;5.554;2022-10-13T13:22:23;13.40;99.90
37274;DHT22;23161;51.250;5.554;2022-10-13T13:24:50;13.40;99.90
37274;DHT22;23161;51.250;5.554;2022-10-13T13:27:25;13.40;99.90
37274;DHT22;23161;51.250;5.554;2022-10-13T13:29:55;13.40;99.90
37274;DHT22;23161;51.250;5.554;2022-10-13T13:32:23;13.40;99.90
37274;DHT22;23161;51.250;5.554;2022-10-13T13:34:49;13.40;99.90
37274;DHT22;23161;51.250;5.554;2022-10-13T13:37:29;13.40;99.90
37274;DHT22;23161;51.250;5.554;2022-10-13T13:39:57;13.40;99.90
37274;DHT22;23161;51.250;5.554;2022-10-13T13:42:23;13.40;99.90
37274;DHT22;23161;51.250;5.554;2022-10-13T13:47:21;13.40;99.90
37274;DHT22;23161;51.250;5.554;2022-10-13T13:49:48;13.40;99.90
37274;DHT22;23161;51.250;5.554;2022-10-13T13:52:23;13.40;99.90
37274;DHT22;23161;51.250;5.554;2022-10-13T13:54:50;13.50;99.90
37274;DHT22;23161;51.250;5.554;2022-10-13T13:59:43;13.30;99.90
37274;DHT22;23161;51.250;5.554;2022-10-13T14:02:18;13.40;99.90
37274;DHT22;23161;51.250;5.554;2022-10-13T14:07:11;13.50;99.90
37274;DHT22;23161;51.250;5.554;2022-10-13T14:12:03;13.40;99.90
37274;DHT22;23161;51.250;5.554;2022-10-13T14:14:30;13.50;99.90
37274;DHT22;23161;51.250;5.554;2022-10-13T14:24:17;13.50;99.90
37274;DHT22;23161;51.250;5.554;2022-10-13T14:26:43;13.50;99.90
37274;DHT22;23161;51.250;5.554;2022-10-13T14:34:01;13.50;99.90
37274;DHT22;23161;51.250;5.554;2022-10-13T14:43:55;13.50;99.90
37274;DHT22;23161;51.250;5.554;2022-10-13T14:46:22;13.50;99.90
37274;DHT22;23161;51.250;5.554;2022-10-13T14:53:43;13.50;99.90
37274;DHT22;23161;51.250;5.554;2022-10-13T14:56:35;13.50;99.90
37274;DHT22;23161;51.250;5.554;2022-10-13T14:59:03;13.50;99.90
37274;DHT22;23161;51.250;5.554;2022-10-13T15:04:03;13.50;99.90
37274;DHT22;23161;51.250;5.554;2022-10-13T15:06:30;13.50;99.90
37274;DHT22;23161;51.250;5.554;2022-10-13T15:08:56;13.50;99.90
37274;DHT22;23161;51.250;5.554;2022-10-13T15:16:23;13.50;99.90
37274;DHT22;23161;51.250;5.554;2022-10-13T15:18:49;13.60;99.90
37274;DHT22;23161;51.250;5.554;2022-10-13T15:23:42;13.60;99.90
37274;DHT22;23161;51.250;5.554;2022-10-13T15:26:10;13.60;99.90
37274;DHT22;23161;51.250;5.554;2022-10-13T15:28:39;13.60;99.90
37274;DHT22;23161;51.250;5.554;2022-10-13T15:31:09;13.50;99.90
37274;DHT22;23161;51.250;5.554;2022-10-13T15:36:01;13.60;99.90
37274;DHT22;23161;51.250;5.554;2022-10-13T15:38:28;13.90;99.90
37274;DHT22;23161;51.250;5.554;2022-10-13T15:40:59;14.20;99.90
37274;DHT22;23161;51.250;5.554;2022-10-13T15:43:25;14.50;99.90
37274;DHT22;23161;51.250;5.554;2022-10-13T15:46:03;14.60;99.90
37274;DHT22;23161;51.250;5.554;2022-10-13T15:48:29;14.80;99.90
37274;DHT22;23161;51.250;5.554;2022-10-13T15:50:55;14.80;99.90
37274;DHT22;23161;51.250;5.554;2022-10-13T15:53:21;14.90;99.90
37274;DHT22;23161;51.250;5.554;2022-10-13T15:55:47;14.90;99.90
37274;DHT22;23161;51.250;5.554;2022-10-13T15:58:13;15.00;99.90
37274;DHT22;23161;51.250;5.554;2022-10-13T16:00:39;15.00;99.90
37274;DHT22;23161;51.250;5.554;2022-10-13T16:03:06;15.00;99.90
37274;DHT22;23161;51.250;5.554;2022-10-13T16:05:32;15.00;99.90
37274;DHT22;23161;51.250;5.554;2022-10-13T16:07:58;15.00;99.90
37274;DHT22;23161;51.250;5.554;2022-10-13T16:10:24;14.90;99.90
37274;DHT22;23161;51.250;5.554;2022-10-13T16:12:50;15.00;99.90
37274;DHT22;23161;51.250;5.554;2022-10-13T16:15:16;15.00;99.90
37274;DHT22;23161;51.250;5.554;2022-10-13T16:17:43;15.00;99.90
37274;DHT22;23161;51.250;5.554;2022-10-13T16:22:38;14.90;99.90
37274;DHT22;23161;51.250;5.554;2022-10-13T16:25:04;15.00;99.90
37274;DHT22;23161;51.250;5.554;2022-10-13T16:27:31;15.00;99.90
37274;DHT22;23161;51.250;5.554;2022-10-13T16:37:17;14.90;99.90
37274;DHT22;23161;51.250;5.554;2022-10-13T16:39:43;14.90;99.90
37274;DHT22;23161;51.250;5.554;2022-10-13T16:42:09;14.90;99.90
37274;DHT22;23161;51.250;5.554;2022-10-13T16:44:35;14.90;99.90
37274;DHT22;23161;51.250;5.554;2022-10-13T16:47:01;14.90;99.90
37274;DHT22;23161;51.250;5.554;2022-10-13T16:49:30;14.90;99.90
37274;DHT22;23161;51.250;5.554;2022-10-13T16:54:22;14.90;99.90
37274;DHT22;23161;51.250;5.554;2022-10-13T16:56:48;14.90;99.90
37274;DHT22;23161;51.250;5.554;2022-10-13T16:59:15;14.80;99.90
37274;DHT22;23161;51.250;5.554;2022-10-13T17:01:41;14.90;99.90
37274;DHT22;23161;51.250;5.554;2022-10-13T17:11:31;14.90;99.90
37274;DHT22;23161;51.250;5.554;2022-10-13T17:13:58;14.90;99.90
37274;DHT22;23161;51.250;5.554;2022-10-13T17:18:55;14.90;99.90
37274;DHT22;23161;51.250;5.554;2022-10-13T17:21:24;14.90;99.90
37274;DHT22;23161;51.250;5.554;2022-10-13T17:26:17;14.90;99.90
37274;DHT22;23161;51.250;5.554;2022-10-13T17:28:44;14.80;99.90
37274;DHT22;23161;51.250;5.554;2022-10-13T17:31:15;14.80;99.90
37274;DHT22;23161;51.250;5.554;2022-10-13T17:33:42;14.80;99.90
37274;DHT22;23161;51.250;5.554;2022-10-13T17:36:16;14.80;99.90
37274;DHT22;23161;51.250;5.554;2022-10-13T17:38:44;14.80;99.90
37274;DHT22;23161;51.250;5.554;2022-10-13T17:41:11;14.80;99.90
37274;DHT22;23161;51.250;5.554;2022-10-13T17:43:46;14.80;99.90
37274;DHT22;23161;51.250;5.554;2022-10-13T17:46:19;14.80;99.90
37274;DHT22;23161;51.250;5.554;2022-10-13T17:48:47;14.80;99.90
37274;DHT22;23161;51.250;5.554;2022-10-13T17:51:15;14.80;99.90
37274;DHT22;23161;51.250;5.554;2022-10-13T17:53:42;14.80;99.90
37274;DHT22;23161;51.250;5.554;2022-10-13T17:56:12;14.80;99.90
37274;DHT22;23161;51.250;5.554;2022-10-13T17:58:39;14.90;99.90
37274;DHT22;23161;51.250;5.554;2022-10-13T18:01:10;14.80;99.90
37274;DHT22;23161;51.250;5.554;2022-10-13T18:03:42;14.80;99.90
37274;DHT22;23161;51.250;5.554;2022-10-13T18:06:09;14.70;99.90
37274;DHT22;23161;51.250;5.554;2022-10-13T18:11:12;14.70;99.90
37274;DHT22;23161;51.250;5.554;2022-10-13T18:13:39;14.70;99.90
37274;DHT22;23161;51.250;5.554;2022-10-13T18:16:07;14.60;99.90
37274;DHT22;23161;51.250;5.554;2022-10-13T18:18:34;14.60;99.90
37274;DHT22;23161;51.250;5.554;2022-10-13T18:21:01;14.60;99.90
37274;DHT22;23161;51.250;5.554;2022-10-13T18:23:35;14.50;99.90
37274;DHT22;23161;51.250;5.554;2022-10-13T18:26:06;14.50;99.90
37274;DHT22;23161;51.250;5.554;2022-10-13T18:28:35;14.50;99.90
37274;DHT22;23161;51.250;5.554;2022-10-13T18:31:12;14.50;99.90
37274;DHT22;23161;51.250;5.554;2022-10-13T18:33:39;14.50;99.90
37274;DHT22;23161;51.250;5.554;2022-10-13T18:36:40;14.40;99.90
37274;DHT22;23161;51.250;5.554;2022-10-13T18:39:22;14.50;99.90
37274;DHT22;23161;51.250;5.554;2022-10-13T18:41:50;14.50;99.90
37274;DHT22;23161;51.250;5.554;2022-10-13T18:44:18;14.50;99.90
37274;DHT22;23161;51.250;5.554;2022-10-13T18:46:48;14.40;99.90
37274;DHT22;23161;51.250;5.554;2022-10-13T18:51:43;14.50;99.90
37274;DHT22;23161;51.250;5.554;2022-10-13T18:56:35;14.40;99.90
37274;DHT22;23161;51.250;5.554;2022-10-13T18:59:02;14.50;99.90
37274;DHT22;23161;51.250;5.554;2022-10-13T19:01:30;14.40;99.90
37274;DHT22;23161;51.250;5.554;2022-10-13T19:03:57;14.50;99.90
37274;DHT22;23161;51.250;5.554;2022-10-13T19:06:24;14.40;99.90
37274;DHT22;23161;51.250;5.554;2022-10-13T19:08:56;14.40;99.90
37274;DHT22;23161;51.250;5.554;2022-10-13T19:11:23;14.30;99.90
37274;DHT22;23161;51.250;5.554;2022-10-13T19:13:50;14.40;99.90